Time;durP1;ratioP1;P1;durP2;ratioP2;P2;SDS_P1;SDS_P2;PMS_P1;PMS_P2;Temp;Humidity;BMP_temperature;BMP_pressure;BME280_temperature;BME280_humidity;BME280_pressure;Samples;Min_cycle;Max_cycle;Signal;HPM_P1;HPM_P2
2022/04/03 00:00:27;;;;;;;3.60;1.95;;;0.70;94.30;;;;;;5047416;28;20066;-42
2022/04/03 00:02:53;;;;;;;2.42;1.95;;;0.70;94.40;;;;;;5046640;28;20096;-43
2022/04/03 00:05:19;;;;;;;6.85;2.00;;;0.70;94.50;;;;;;5046220;28;20021;-43
2022/04/03 00:07:46;;;;;;;2.95;2.20;;;0.70;94.50;;;;;;5046441;28;20419;-41
2022/04/03 00:10:14;;;;;;;3.05;1.55;;;0.70;94.60;;;;;;5046159;28;20377;-42
2022/04/03 00:12:46;;;;;;;2.55;1.73;;;0.70;94.60;;;;;;5046717;28;20025;-43
2022/04/03 00:15:13;;;;;;;3.17;1.92;;;0.70;94.60;;;;;;5046892;28;20132;-43
2022/04/03 00:17:38;;;;;;;3.95;1.35;;;0.70;94.70;;;;;;5046706;28;20021;-42
2022/04/03 00:20:04;;;;;;;4.03;2.00;;;0.70;94.70;;;;;;5045616;28;20033;-41
2022/04/03 00:22:30;;;;;;;3.83;1.80;;;0.70;94.80;;;;;;5046574;28;20479;-42
2022/04/03 00:24:55;;;;;;;4.90;1.95;;;0.60;94.90;;;;;;5044851;28;20048;-39
2022/04/03 00:27:24;;;;;;;2.72;1.60;;;0.60;94.90;;;;;;5046790;28;20035;-41
2022/04/03 00:29:52;;;;;;;3.38;1.90;;;0.50;95.00;;;;;;5045560;28;20111;-41
2022/04/03 00:32:17;;;;;;;3.40;1.77;;;0.50;95.00;;;;;;5045930;28;20773;-43
2022/04/03 00:34:43;;;;;;;3.97;2.03;;;0.50;95.10;;;;;;5045585;28;20268;-43
2022/04/03 00:37:09;;;;;;;3.40;1.92;;;0.50;95.20;;;;;;5046607;28;20029;-42
2022/04/03 00:39:34;;;;;;;2.33;1.80;;;0.40;95.20;;;;;;5045528;28;20155;-39
2022/04/03 00:42:00;;;;;;;2.15;1.45;;;0.40;95.20;;;;;;5045846;28;20055;-42
2022/04/03 00:44:26;;;;;;;3.30;1.88;;;0.40;95.30;;;;;;5045911;28;20064;-42
2022/04/03 00:46:52;;;;;;;3.67;2.40;;;0.40;95.40;;;;;;5044846;28;20040;-42
2022/04/03 00:49:20;;;;;;;2.35;1.83;;;0.40;95.50;;;;;;5045879;28;20033;-42
2022/04/03 00:51:46;;;;;;;3.25;1.70;;;0.40;95.60;;;;;;5045284;28;20018;-42
2022/04/03 00:54:12;;;;;;;4.20;1.88;;;0.30;95.60;;;;;;5044107;28;20033;-42
2022/04/03 00:56:38;;;;;;;3.42;2.10;;;0.30;95.90;;;;;;5045999;28;20045;-42
2022/04/03 00:59:03;;;;;;;3.40;2.08;;;0.30;95.70;;;;;;5045940;28;20036;-42
2022/04/03 01:01:29;;;;;;;3.25;2.10;;;0.30;95.80;;;;;;5044631;28;20048;-42
2022/04/03 01:03:54;;;;;;;2.92;1.60;;;0.30;95.80;;;;;;5045561;28;20025;-43
2022/04/03 01:06:20;;;;;;;3.28;1.70;;;0.30;95.90;;;;;;5045258;28;20048;-41
2022/04/03 01:08:45;;;;;;;2.10;1.90;;;0.20;95.90;;;;;;5045149;28;20072;-41
2022/04/03 01:11:12;;;;;;;3.03;2.17;;;0.20;96.00;;;;;;5045735;28;20067;-41
2022/04/03 01:13:51;;;;;;;3.97;2.00;;;0.20;96.10;;;;;;5045564;28;20032;-42
2022/04/03 01:16:17;;;;;;;2.80;2.38;;;0.20;96.10;;;;;;5045577;28;20013;-42
2022/04/03 01:18:43;;;;;;;3.78;2.10;;;0.20;96.20;;;;;;5044780;28;20048;-42
2022/04/03 01:21:09;;;;;;;2.80;2.13;;;0.20;96.20;;;;;;5045357;28;20751;-42
2022/04/03 01:23:34;;;;;;;4.03;3.00;;;0.20;96.20;;;;;;5045416;28;20021;-41
2022/04/03 01:26:00;;;;;;;5.63;3.78;;;0.10;96.30;;;;;;5045127;28;20057;-41
2022/04/03 01:28:26;;;;;;;5.60;3.53;;;0.10;96.40;;;;;;5045778;28;20029;-38
2022/04/03 01:30:51;;;;;;;4.68;3.55;;;0.10;96.60;;;;;;5045082;28;20071;-41
2022/04/03 01:33:20;;;;;;;3.88;3.25;;;0.10;96.80;;;;;;5046090;28;20082;-41
2022/04/03 01:35:46;;;;;;;5.57;4.38;;;0.10;96.80;;;;;;5044299;28;20423;-42
2022/04/03 01:38:14;;;;;;;5.53;3.72;;;0.10;96.90;;;;;;5045594;28;20029;-41
2022/04/03 01:40:41;;;;;;;5.22;3.53;;;0.00;96.90;;;;;;5045657;28;20166;-43
2022/04/03 01:43:08;;;;;;;4.82;3.72;;;0.00;97.00;;;;;;5041506;28;20078;-42
2022/04/03 01:45:35;;;;;;;5.50;3.40;;;0.00;97.10;;;;;;5045675;28;20116;-43
2022/04/03 01:48:01;;;;;;;7.97;3.53;;;0.00;97.10;;;;;;5044106;28;20049;-41
2022/04/03 01:50:30;;;;;;;6.15;3.83;;;0.00;97.20;;;;;;5045077;28;20082;-42
2022/04/03 01:52:55;;;;;;;5.45;3.35;;;0.00;97.40;;;;;;5044410;28;20464;-42
2022/04/03 01:55:23;;;;;;;4.75;3.13;;;0.00;97.50;;;;;;5045203;28;20055;-39
2022/04/03 01:57:48;;;;;;;5.32;3.45;;;0.00;97.50;;;;;;5044378;28;20025;-41
2022/04/03 02:00:17;;;;;;;6.50;3.55;;;-0.10;97.50;;;;;;5045256;28;20412;-43
2022/04/03 02:02:42;;;;;;;6.13;3.58;;;-0.10;97.70;;;;;;5043796;28;20041;-43
2022/04/03 02:05:08;;;;;;;4.10;3.20;;;-0.10;97.80;;;;;;5047846;28;20031;-42
2022/04/03 02:07:34;;;;;;;5.22;3.08;;;-0.10;97.90;;;;;;5049575;28;20032;-41
2022/04/03 02:10:08;;;;;;;6.28;3.13;;;-0.10;97.90;;;;;;5049018;28;20037;-38
2022/04/03 02:12:40;;;;;;;6.53;3.28;;;-0.10;98.00;;;;;;5051327;28;20065;-41
2022/04/03 02:15:11;;;;;;;6.70;3.70;;;-0.10;98.20;;;;;;5051921;28;20025;-39
2022/04/03 02:17:39;;;;;;;4.07;2.72;;;-0.10;98.20;;;;;;5050491;28;20880;-40
2022/04/03 02:20:05;;;;;;;4.68;3.28;;;-0.10;98.30;;;;;;5048823;28;20033;-40
2022/04/03 02:22:30;;;;;;;5.63;3.40;;;-0.10;98.30;;;;;;5049116;28;20107;-39
2022/04/03 02:24:56;;;;;;;5.60;3.33;;;-0.20;98.40;;;;;;5048031;28;20116;-40
2022/04/03 02:27:22;;;;;;;4.20;3.20;;;-0.20;98.50;;;;;;5049136;28;20021;-42
2022/04/03 02:29:47;;;;;;;3.47;2.70;;;-0.20;98.50;;;;;;5048090;28;20060;-42
2022/04/03 02:32:13;;;;;;;3.92;3.03;;;-0.20;98.50;;;;;;5047801;28;20519;-41
2022/04/03 02:34:38;;;;;;;4.30;2.70;;;-0.20;98.60;;;;;;5048522;28;20029;-42
2022/04/03 02:37:04;;;;;;;2.88;2.55;;;-0.20;98.70;;;;;;5048585;28;20123;-39
2022/04/03 02:39:29;;;;;;;4.10;2.80;;;-0.20;98.80;;;;;;5047719;28;20028;-44
2022/04/03 02:41:55;;;;;;;3.97;3.00;;;-0.20;98.80;;;;;;5048447;28;20073;-42
2022/04/03 02:44:23;;;;;;;4.38;3.33;;;-0.20;98.90;;;;;;5047892;28;20503;-41
2022/04/03 02:46:49;;;;;;;4.78;3.20;;;-0.20;98.90;;;;;;5047667;28;20028;-41
2022/04/03 02:49:14;;;;;;;5.43;3.97;;;-0.10;99.10;;;;;;5048245;28;20029;-42
2022/04/03 02:51:40;;;;;;;4.60;3.45;;;-0.10;99.20;;;;;;5048600;28;20025;-41
2022/04/03 02:54:06;;;;;;;5.88;4.22;;;-0.10;99.30;;;;;;5047699;28;20056;-42
2022/04/03 02:56:31;;;;;;;5.05;3.53;;;-0.10;99.40;;;;;;5047849;28;20084;-45
2022/04/03 02:58:57;;;;;;;5.50;3.60;;;-0.10;99.40;;;;;;5046635;28;20025;-41
2022/04/03 03:01:26;;;;;;;6.05;3.50;;;-0.10;99.50;;;;;;5048089;28;20380;-42
2022/04/03 03:03:51;;;;;;;4.68;3.60;;;-0.10;99.60;;;;;;5047588;28;20024;-43
2022/04/03 03:06:17;;;;;;;4.20;3.13;;;0.00;99.60;;;;;;5047499;28;20020;-41
2022/04/03 03:08:43;;;;;;;6.97;4.00;;;0.00;99.70;;;;;;5047425;28;20037;-40
2022/04/03 03:11:10;;;;;;;6.47;3.78;;;0.00;99.80;;;;;;5048293;28;20530;-42
2022/04/03 03:13:36;;;;;;;6.85;3.63;;;0.00;99.90;;;;;;5047687;28;20041;-41
2022/04/03 03:16:02;;;;;;;7.18;3.58;;;0.00;99.90;;;;;;5046365;28;20029;-41
2022/04/03 03:18:27;;;;;;;4.78;3.55;;;0.10;99.90;;;;;;5048234;28;20033;-41
2022/04/03 03:20:53;;;;;;;5.45;3.80;;;0.10;99.90;;;;;;5046219;28;20021;-41
2022/04/03 03:23:19;;;;;;;4.55;3.90;;;0.20;99.90;;;;;;5047988;28;20021;-41
2022/04/03 03:25:45;;;;;;;8.32;3.83;;;0.20;99.90;;;;;;5047627;28;20028;-40
2022/04/03 03:28:11;;;;;;;5.18;3.42;;;0.30;99.90;;;;;;5047011;28;20073;-41
2022/04/03 03:30:37;;;;;;;4.93;4.28;;;0.30;99.90;;;;;;5047369;28;20060;-42
2022/04/03 03:33:03;;;;;;;6.55;3.75;;;0.40;99.90;;;;;;5047502;28;20032;-41
2022/04/03 03:35:29;;;;;;;5.70;3.92;;;0.50;99.90;;;;;;5046787;28;20507;-41
2022/04/03 03:37:54;;;;;;;4.57;3.63;;;0.50;99.90;;;;;;5047214;28;20029;-40
2022/04/03 03:40:20;;;;;;;6.10;3.42;;;0.60;99.90;;;;;;5047647;28;20035;-40
2022/04/03 03:42:45;;;;;;;7.20;4.40;;;0.60;99.90;;;;;;5046412;28;20789;-42
2022/04/03 03:45:13;;;;;;;7.93;4.50;;;0.50;99.90;;;;;;5047310;28;20451;-42
2022/04/03 03:47:39;;;;;;;7.38;4.35;;;0.50;99.90;;;;;;5047858;28;20122;-43
2022/04/03 03:50:04;;;;;;;5.60;4.43;;;0.50;99.90;;;;;;5045920;28;20538;-42
2022/04/03 03:52:30;;;;;;;5.55;3.85;;;0.50;99.90;;;;;;5047111;28;20029;-42
2022/04/03 03:54:56;;;;;;;5.53;3.80;;;0.50;99.90;;;;;;5047067;28;20021;-41
2022/04/03 03:57:22;;;;;;;5.55;4.00;;;0.50;99.90;;;;;;5046146;28;20040;-41
2022/04/03 03:59:47;;;;;;;5.82;3.67;;;0.50;99.90;;;;;;5046585;28;20207;-42
2022/04/03 04:02:13;;;;;;;4.00;3.30;;;0.50;99.90;;;;;;5046452;28;20468;-42
2022/04/03 04:04:39;;;;;;;4.80;3.83;;;0.50;99.90;;;;;;5047166;28;20021;-42
2022/04/03 04:07:04;;;;;;;5.75;3.22;;;0.50;99.90;;;;;;5045697;28;20060;-42
2022/04/03 04:09:33;;;;;;;3.83;2.90;;;0.50;99.90;;;;;;5046293;28;20128;-42
2022/04/03 04:11:58;;;;;;;4.68;3.25;;;0.50;99.90;;;;;;5046451;28;20017;-41
2022/04/03 04:14:24;;;;;;;4.43;3.17;;;0.60;99.90;;;;;;5047142;28;20040;-40
2022/04/03 04:16:49;;;;;;;5.05;3.08;;;0.60;99.90;;;;;;5045632;28;20562;-41
2022/04/03 04:19:15;;;;;;;8.00;3.20;;;0.60;99.90;;;;;;5046819;28;20059;-40
2022/04/03 04:21:43;;;;;;;4.05;2.60;;;0.60;99.90;;;;;;5046364;28;20021;-42
2022/04/03 04:24:10;;;;;;;4.95;2.70;;;0.70;99.90;;;;;;5046481;28;20041;-41
2022/04/03 04:26:36;;;;;;;4.78;2.92;;;0.80;99.90;;;;;;5046419;28;20021;-42
2022/04/03 04:29:05;;;;;;;3.38;2.65;;;0.80;99.90;;;;;;5045855;28;20111;-44
2022/04/03 04:31:36;;;;;;;4.35;2.80;;;0.90;99.90;;;;;;5045973;28;20060;-42
2022/04/03 04:34:03;;;;;;;4.13;2.90;;;1.00;99.90;;;;;;5045526;28;20056;-41
2022/04/03 04:36:29;;;;;;;3.15;2.42;;;1.00;99.90;;;;;;5046310;28;20017;-42
2022/04/03 04:38:56;;;;;;;3.97;2.42;;;1.00;99.90;;;;;;5045172;28;20016;-41
2022/04/03 04:41:21;;;;;;;7.13;2.60;;;1.10;99.90;;;;;;5046905;28;20382;-42
2022/04/03 04:43:47;;;;;;;3.63;2.63;;;1.10;99.90;;;;;;5045810;28;20024;-42
2022/04/03 04:46:12;;;;;;;3.97;2.28;;;1.10;99.90;;;;;;5045754;28;20032;-40
2022/04/03 04:48:48;;;;;;;3.88;2.47;;;1.20;99.90;;;;;;5046066;28;20033;-42
2022/04/03 04:51:14;;;;;;;3.80;2.28;;;1.20;99.90;;;;;;5026469;28;20385;-42
2022/04/03 04:53:39;;;;;;;2.38;2.13;;;1.30;99.90;;;;;;5040484;28;20029;-42
2022/04/03 04:56:05;;;;;;;2.33;1.85;;;1.30;99.90;;;;;;5045447;28;20057;-41
2022/04/03 04:58:31;;;;;;;2.95;2.20;;;1.30;99.90;;;;;;5044881;28;20025;-41
2022/04/03 05:00:59;;;;;;;2.25;1.83;;;1.40;99.90;;;;;;5045888;28;20028;-42
2022/04/03 05:03:25;;;;;;;3.80;2.67;;;1.40;99.90;;;;;;5045796;28;20052;-41
2022/04/03 05:05:50;;;;;;;4.13;1.92;;;1.40;99.90;;;;;;5045174;28;20052;-42
2022/04/03 05:08:16;;;;;;;2.67;2.17;;;1.50;99.90;;;;;;5045678;28;20119;-41
2022/04/03 05:10:41;;;;;;;3.45;2.20;;;1.50;99.90;;;;;;5045426;28;20090;-43
2022/04/03 05:13:11;;;;;;;2.67;1.83;;;1.50;99.90;;;;;;5045187;28;20033;-41
2022/04/03 05:15:37;;;;;;;3.80;1.60;;;1.60;99.90;;;;;;5035035;28;20024;-38
2022/04/03 05:18:03;;;;;;;2.10;1.48;;;1.60;99.90;;;;;;5045363;28;20071;-42
2022/04/03 05:20:29;;;;;;;2.90;1.65;;;1.70;99.90;;;;;;5044924;28;20037;-38
2022/04/03 05:22:54;;;;;;;2.47;1.50;;;1.70;99.90;;;;;;5045143;28;20478;-42
2022/04/03 05:25:20;;;;;;;1.77;1.20;;;1.80;99.90;;;;;;5045609;28;20570;-40
2022/04/03 05:27:46;;;;;;;1.30;1.20;;;1.80;99.90;;;;;;5045064;28;20443;-43
2022/04/03 05:30:13;;;;;;;1.33;1.23;;;1.80;99.90;;;;;;5045655;28;20751;-42
2022/04/03 05:32:38;;;;;;;1.35;1.25;;;1.90;99.90;;;;;;5045841;28;20052;-42
2022/04/03 05:35:06;;;;;;;3.22;1.42;;;1.90;99.90;;;;;;5044304;28;20557;-43
2022/04/03 05:37:32;;;;;;;1.92;1.35;;;1.90;99.90;;;;;;5045802;28;20029;-43
2022/04/03 05:39:57;;;;;;;1.85;1.23;;;1.90;99.90;;;;;;5046180;28;20028;-43
2022/04/03 05:42:23;;;;;;;1.20;1.10;;;1.90;99.90;;;;;;5049187;28;20033;-42
2022/04/03 05:44:48;;;;;;;1.48;1.30;;;1.90;99.90;;;;;;5049479;28;20029;-42
2022/04/03 05:47:17;;;;;;;2.95;1.50;;;2.00;99.90;;;;;;5049601;28;20116;-43
2022/04/03 05:49:42;;;;;;;2.42;1.67;;;2.00;99.90;;;;;;5048049;28;20041;-42
2022/04/03 05:52:08;;;;;;;2.17;1.50;;;2.00;99.90;;;;;;5049737;28;20025;-42
2022/04/03 05:54:33;;;;;;;1.70;1.20;;;2.00;99.90;;;;;;5049270;28;20029;-44
2022/04/03 05:56:59;;;;;;;3.42;1.60;;;2.10;99.90;;;;;;5048230;28;20057;-42
2022/04/03 05:59:24;;;;;;;2.03;1.38;;;2.10;99.90;;;;;;5049927;28;20143;-41
2022/04/03 06:01:50;;;;;;;3.45;1.55;;;2.10;99.90;;;;;;5048212;28;20082;-42
2022/04/03 06:04:16;;;;;;;2.05;1.65;;;2.20;99.90;;;;;;5049283;28;20037;-42
2022/04/03 06:06:41;;;;;;;3.00;1.83;;;2.20;99.90;;;;;;5048669;28;20017;-42
2022/04/03 06:09:08;;;;;;;3.15;1.80;;;2.20;99.90;;;;;;5048468;28;20037;-42
2022/04/03 06:11:33;;;;;;;4.30;2.03;;;2.20;99.90;;;;;;5049529;28;20112;-43
2022/04/03 06:14:00;;;;;;;2.55;2.10;;;2.20;99.90;;;;;;5048871;28;20135;-42
2022/04/03 06:16:26;;;;;;;3.38;2.72;;;2.20;99.90;;;;;;5048309;28;20692;-41
2022/04/03 06:18:55;;;;;;;2.70;2.05;;;2.20;99.90;;;;;;5048698;28;20024;-42
2022/04/03 06:21:27;;;;;;;1.92;1.70;;;2.20;99.90;;;;;;5048548;28;20417;-42
2022/04/03 06:23:52;;;;;;;3.07;1.90;;;2.20;99.90;;;;;;5047716;28;20252;-42
2022/04/03 06:26:18;;;;;;;2.58;1.70;;;2.10;99.90;;;;;;5049182;28;20048;-41
2022/04/03 06:28:44;;;;;;;2.63;1.73;;;2.10;99.90;;;;;;5048020;28;20079;-41
2022/04/03 06:31:16;;;;;;;2.45;1.80;;;2.00;99.90;;;;;;5048310;28;20021;-40
2022/04/03 06:33:45;;;;;;;3.17;1.58;;;1.90;99.90;;;;;;5048207;28;20025;-42
2022/04/03 06:36:10;;;;;;;3.42;1.52;;;1.80;99.90;;;;;;5048207;28;20025;-41
2022/04/03 06:38:36;;;;;;;2.17;1.98;;;1.80;99.90;;;;;;5048108;28;20036;-42
2022/04/03 06:41:01;;;;;;;2.35;1.77;;;1.70;99.90;;;;;;5048135;28;20027;-41
2022/04/03 06:43:29;;;;;;;2.00;1.80;;;1.70;99.90;;;;;;5048840;28;20540;-42
2022/04/03 06:45:56;;;;;;;1.40;1.30;;;1.70;99.90;;;;;;5047457;28;20416;-42
2022/04/03 06:48:23;;;;;;;2.55;1.67;;;1.70;99.90;;;;;;5047885;28;20036;-40
2022/04/03 06:50:48;;;;;;;3.75;1.85;;;1.70;99.90;;;;;;5048014;28;20036;-42
2022/04/03 06:53:14;;;;;;;5.43;1.92;;;1.70;99.90;;;;;;5047733;28;20392;-43
2022/04/03 06:55:39;;;;;;;2.15;1.50;;;1.70;99.90;;;;;;5048631;28;20048;-41
2022/04/03 06:58:07;;;;;;;2.17;1.63;;;1.70;99.90;;;;;;5047828;28;20052;-42
2022/04/03 07:00:34;;;;;;;2.38;1.80;;;1.80;99.90;;;;;;5048186;28;20064;-42
2022/04/03 07:02:59;;;;;;;1.95;1.67;;;1.80;99.90;;;;;;5047448;28;20626;-43
2022/04/03 07:05:25;;;;;;;2.58;2.13;;;1.80;99.90;;;;;;5047935;28;20116;-41
2022/04/03 07:07:52;;;;;;;2.47;2.08;;;1.90;99.90;;;;;;5047811;28;20021;-42
2022/04/03 07:10:21;;;;;;;3.42;2.60;;;1.90;99.90;;;;;;5048260;28;20086;-42
2022/04/03 07:12:48;;;;;;;3.15;2.50;;;1.90;99.90;;;;;;5046564;28;20020;-41
2022/04/03 07:15:14;;;;;;;2.88;2.47;;;1.90;99.90;;;;;;5047862;28;20049;-44
2022/04/03 07:17:43;;;;;;;3.17;2.45;;;2.00;99.90;;;;;;5047960;28;20104;-41
2022/04/03 07:20:13;;;;;;;3.30;2.45;;;2.10;99.90;;;;;;5047538;28;20062;-42
2022/04/03 07:22:39;;;;;;;3.97;2.55;;;2.10;99.90;;;;;;5047626;28;20131;-42
2022/04/03 07:25:05;;;;;;;3.25;2.00;;;2.10;99.90;;;;;;5046986;28;20029;-41
2022/04/03 07:27:30;;;;;;;3.03;1.95;;;2.20;99.90;;;;;;5047330;28;20776;-41
2022/04/03 07:29:56;;;;;;;3.80;1.90;;;2.20;99.90;;;;;;5047134;28;20037;-42
2022/04/03 07:32:21;;;;;;;2.80;2.15;;;2.30;99.90;;;;;;5047768;28;20155;-42
2022/04/03 07:34:47;;;;;;;3.47;2.03;;;2.40;99.90;;;;;;5045849;28;20016;-42
2022/04/03 07:37:12;;;;;;;3.20;2.10;;;2.50;99.90;;;;;;5048015;28;20032;-41
2022/04/03 07:39:40;;;;;;;2.40;1.70;;;2.60;99.90;;;;;;5047052;28;20487;-42
2022/04/03 07:42:06;;;;;;;3.30;2.03;;;2.80;99.90;;;;;;5047336;28;20388;-41
2022/04/03 07:44:32;;;;;;;1.90;1.70;;;3.00;99.90;;;;;;5047652;28;20468;-42
2022/04/03 07:46:57;;;;;;;3.17;1.83;;;3.10;99.90;;;;;;5047055;28;20053;-41
2022/04/03 07:49:23;;;;;;;2.22;1.40;;;3.20;99.90;;;;;;5046361;28;20415;-42
2022/04/03 07:51:49;;;;;;;2.63;1.77;;;3.30;99.90;;;;;;5047153;28;20021;-43
2022/04/03 07:54:14;;;;;;;2.80;2.03;;;3.30;99.90;;;;;;5046356;28;20651;-42
2022/04/03 07:56:40;;;;;;;2.85;2.00;;;3.40;99.90;;;;;;5047180;28;20056;-42
2022/04/03 07:59:06;;;;;;;3.88;2.05;;;3.50;99.90;;;;;;5049885;28;20033;-41
2022/04/03 08:01:33;;;;;;;2.03;1.67;;;3.60;99.90;;;;;;5053963;28;20111;-41
2022/04/03 08:03:58;;;;;;;2.13;1.92;;;3.70;99.90;;;;;;5045729;28;20025;-42
2022/04/03 08:06:24;;;;;;;3.13;2.22;;;3.80;99.90;;;;;;5047376;28;20052;-43
2022/04/03 08:08:52;;;;;;;2.67;2.20;;;4.00;99.90;;;;;;5045625;28;20087;-43
2022/04/03 08:11:18;;;;;;;3.05;1.70;;;4.10;99.90;;;;;;5043824;28;20020;-42
2022/04/03 08:13:45;;;;;;;2.55;1.85;;;4.40;99.90;;;;;;5045247;28;20021;-42
2022/04/03 08:16:10;;;;;;;2.03;1.60;;;4.60;99.90;;;;;;5044792;28;20025;-43
2022/04/03 08:18:36;;;;;;;2.15;1.92;;;4.90;99.90;;;;;;5046510;28;20468;-42
2022/04/03 08:21:02;;;;;;;3.53;1.70;;;5.20;99.90;;;;;;5045309;28;20027;-42
2022/04/03 08:23:27;;;;;;;2.20;2.05;;;5.40;99.90;;;;;;5045622;28;20048;-43
2022/04/03 08:25:53;;;;;;;2.85;1.90;;;5.60;99.90;;;;;;5044596;28;20064;-42
2022/04/03 08:28:19;;;;;;;2.88;2.05;;;5.70;99.90;;;;;;5045841;28;20782;-43
2022/04/03 08:30:45;;;;;;;1.95;1.52;;;5.80;99.90;;;;;;5044609;28;20183;-43
2022/04/03 08:33:11;;;;;;;3.92;2.08;;;5.90;99.90;;;;;;5045361;28;20400;-42
2022/04/03 08:35:40;;;;;;;3.30;1.35;;;6.00;99.90;;;;;;5046149;28;20112;-42
2022/04/03 08:38:07;;;;;;;4.30;1.90;;;6.00;99.80;;;;;;5044705;28;20555;-41
2022/04/03 08:40:34;;;;;;;1.50;1.40;;;6.10;99.70;;;;;;5049046;28;20067;-40
2022/04/03 08:43:01;;;;;;;1.88;1.65;;;6.00;99.60;;;;;;5047144;28;20524;-42
2022/04/03 08:45:27;;;;;;;2.05;1.70;;;5.90;99.60;;;;;;5047314;28;20033;-42
2022/04/03 08:47:57;;;;;;;3.58;1.90;;;5.90;99.60;;;;;;5045383;28;20576;-42
2022/04/03 08:50:31;;;;;;;2.17;2.00;;;5.90;99.50;;;;;;5044729;28;20101;-41
2022/04/03 08:52:59;;;;;;;5.50;2.80;;;5.90;99.20;;;;;;5044896;28;20037;-42
2022/04/03 08:55:25;;;;;;;3.50;2.40;;;5.80;98.80;;;;;;5044240;28;20045;-43
2022/04/03 08:57:51;;;;;;;1.98;1.80;;;5.70;98.60;;;;;;5043744;28;20025;-43
2022/04/03 09:00:17;;;;;;;5.35;2.67;;;5.70;98.90;;;;;;5045432;28;20857;-42
2022/04/03 09:02:46;;;;;;;2.00;1.75;;;5.60;98.80;;;;;;5044695;28;20492;-42
2022/04/03 09:05:12;;;;;;;4.25;2.13;;;5.60;99.00;;;;;;5044482;28;20025;-42
2022/04/03 09:07:37;;;;;;;2.85;2.00;;;5.60;99.00;;;;;;5044958;28;20040;-43
2022/04/03 09:10:16;;;;;;;2.28;1.98;;;5.70;99.10;;;;;;5044508;28;20033;-41
2022/04/03 09:12:47;;;;;;;2.13;1.73;;;5.70;99.10;;;;;;5043029;28;20377;-43
2022/04/03 09:15:24;;;;;;;1.92;1.60;;;5.80;99.00;;;;;;5044380;28;20028;-42
2022/04/03 09:18:01;;;;;;;1.77;1.55;;;6.00;99.10;;;;;;5044543;28;20021;-41
2022/04/03 09:20:30;;;;;;;4.35;2.20;;;6.30;98.90;;;;;;5045032;28;20032;-41
2022/04/03 09:22:59;;;;;;;3.65;2.50;;;6.50;98.60;;;;;;5044920;28;20025;-43
2022/04/03 09:25:29;;;;;;;3.03;1.58;;;6.70;98.50;;;;;;5045810;28;20025;-42
2022/04/03 09:28:00;;;;;;;3.22;1.60;;;6.90;98.10;;;;;;5044241;28;20021;-42
2022/04/03 09:30:37;;;;;;;1.40;1.30;;;7.10;98.00;;;;;;5025826;28;20127;-42
2022/04/03 09:33:06;;;;;;;2.22;1.30;;;7.20;97.80;;;;;;5037522;28;20061;-43
2022/04/03 09:35:53;;;;;;;2.05;1.30;;;7.20;97.40;;;;;;5043207;28;20028;-41
2022/04/03 09:38:18;;;;;;;2.13;1.75;;;7.10;96.70;;;;;;5044887;28;20028;-44
2022/04/03 09:40:50;;;;;;;1.85;1.15;;;7.00;96.80;;;;;;5044515;28;20649;-42
2022/04/03 09:43:17;;;;;;;3.15;1.08;;;7.00;96.90;;;;;;5045753;28;20033;-43
2022/04/03 09:45:54;;;;;;;2.15;1.60;;;7.00;96.90;;;;;;5044726;28;20036;-43
2022/04/03 09:48:22;;;;;;;2.00;0.88;;;6.90;96.40;;;;;;5044404;28;20329;-43
2022/04/03 09:51:07;;;;;;;1.60;1.02;;;6.80;96.70;;;;;;5045106;28;20204;-42
2022/04/03 09:53:46;;;;;;;2.25;1.00;;;6.80;96.30;;;;;;5045562;28;20029;-43
2022/04/03 09:56:31;;;;;;;1.90;1.10;;;6.80;95.90;;;;;;5045051;28;20499;-41
2022/04/03 09:59:04;;;;;;;1.05;0.95;;;6.80;95.80;;;;;;5044731;28;20296;-42
2022/04/03 10:01:38;;;;;;;;;;;6.90;96.00;;;;;;5025331;28;20029;-43
2022/04/03 10:04:06;;;;;;;2.03;1.02;;;7.10;95.90;;;;;;5039688;28;20394;-42
2022/04/03 10:06:32;;;;;;;3.85;1.27;;;7.30;95.50;;;;;;5044350;28;20062;-41
2022/04/03 10:08:59;;;;;;;1.30;0.90;;;7.40;94.50;;;;;;5041139;28;20114;-44
2022/04/03 10:11:24;;;;;;;1.88;1.30;;;7.60;94.00;;;;;;5043451;28;20037;-43
2022/04/03 10:13:50;;;;;;;2.33;1.25;;;7.60;93.90;;;;;;5042436;28;20017;-43
2022/04/03 10:16:18;;;;;;;3.40;1.38;;;7.60;93.70;;;;;;5041736;28;20041;-42
2022/04/03 10:18:44;;;;;;;0.70;0.70;;;7.50;92.40;;;;;;5042850;28;20705;-42
2022/04/03 10:21:48;;;;;;;1.17;0.70;;;7.40;93.00;;;;;;5044025;28;20037;-42
2022/04/03 10:24:17;;;;;;;1.92;0.82;;;7.30;93.10;;;;;;5044540;28;20420;-42
2022/04/03 10:26:48;;;;;;;2.38;1.00;;;7.20;93.30;;;;;;5046791;28;20033;-42
2022/04/03 10:29:14;;;;;;;1.63;1.02;;;7.20;93.60;;;;;;5047865;28;20044;-42
2022/04/03 10:31:58;;;;;;;1.33;0.85;;;7.20;93.10;;;;;;5047969;28;20025;-43
2022/04/03 10:34:26;;;;;;;1.00;0.90;;;7.20;93.50;;;;;;5048705;28;20036;-43
2022/04/03 10:36:52;;;;;;;0.93;0.70;;;7.30;93.70;;;;;;5052044;28;20029;-42
2022/04/03 10:39:29;;;;;;;1.98;1.08;;;7.40;93.50;;;;;;5047721;28;20016;-42
2022/04/03 10:42:21;;;;;;;2.50;0.90;;;7.40;93.30;;;;;;5047903;28;20025;-41
2022/04/03 10:45:11;;;;;;;2.40;0.88;;;7.50;93.50;;;;;;5047269;28;20467;-42
2022/04/03 10:47:38;;;;;;;1.85;1.00;;;7.60;93.60;;;;;;5029027;28;20045;-41
2022/04/03 10:50:08;;;;;;;1.52;0.95;;;7.70;93.00;;;;;;5037907;28;20079;-43
2022/04/03 10:52:36;;;;;;;1.33;0.90;;;7.70;93.10;;;;;;5048117;28;20467;-41
2022/04/03 10:55:15;;;;;;;1.30;1.17;;;7.80;93.60;;;;;;5047745;28;20032;-43
2022/04/03 10:57:42;;;;;;;3.85;1.13;;;7.90;93.30;;;;;;5047461;28;20674;-39
2022/04/03 11:00:13;;;;;;;3.80;1.42;;;7.90;93.30;;;;;;5048167;28;20172;-43
2022/04/03 11:02:54;;;;;;;3.65;1.70;;;7.90;93.20;;;;;;5048343;28;20132;-43
2022/04/03 11:05:23;;;;;;;3.35;1.30;;;7.80;93.50;;;;;;5047215;28;20047;-42
2022/04/03 11:07:51;;;;;;;2.13;1.38;;;7.70;93.70;;;;;;5047591;28;20040;-42
2022/04/03 11:10:52;;;;;;;1.25;1.08;;;7.70;93.80;;;;;;5047843;28;20045;-39
2022/04/03 11:13:24;;;;;;;1.10;1.00;;;7.80;93.90;;;;;;5047494;28;20571;-42
2022/04/03 11:15:56;;;;;;;1.23;0.98;;;7.80;93.90;;;;;;5047005;28;20406;-42
2022/04/03 11:18:39;;;;;;;1.83;1.00;;;7.90;93.90;;;;;;5045286;28;20063;-43
2022/04/03 11:21:20;;;;;;;3.95;1.30;;;8.00;93.90;;;;;;5047212;28;20029;-41
2022/04/03 11:23:50;;;;;;;1.80;1.15;;;8.10;93.90;;;;;;5047636;28;20110;-43
2022/04/03 11:26:16;;;;;;;1.40;0.80;;;8.20;93.70;;;;;;5047012;28;20029;-42
2022/04/03 11:28:43;;;;;;;1.73;1.00;;;8.10;93.70;;;;;;5046894;28;20025;-41
2022/04/03 11:31:10;;;;;;;2.63;1.40;;;8.10;93.50;;;;;;5047816;28;20029;-44
2022/04/03 11:33:39;;;;;;;1.67;1.20;;;8.10;93.80;;;;;;5047281;28;20041;-43
2022/04/03 11:36:06;;;;;;;1.65;1.02;;;8.00;93.80;;;;;;5046864;28;20036;-43
2022/04/03 11:38:38;;;;;;;2.88;1.00;;;8.00;93.80;;;;;;5046783;28;20025;-43
2022/04/03 11:41:16;;;;;;;1.10;0.77;;;8.20;93.90;;;;;;5045993;28;20025;-43
2022/04/03 11:43:42;;;;;;;1.73;0.90;;;8.30;93.70;;;;;;5036813;28;20033;-43
2022/04/03 11:46:09;;;;;;;3.70;0.90;;;8.40;93.50;;;;;;5046863;28;20563;-43
2022/04/03 11:48:45;;;;;;;0.95;0.80;;;8.40;92.80;;;;;;5046765;28;20072;-43
2022/04/03 11:51:13;;;;;;;0.85;0.80;;;8.60;93.00;;;;;;5047421;28;20063;-42
2022/04/03 11:53:41;;;;;;;2.65;1.10;;;8.70;92.90;;;;;;5046185;28;20032;-43
2022/04/03 11:56:12;;;;;;;1.05;0.77;;;8.80;92.90;;;;;;5046871;28;20574;-43
2022/04/03 11:58:45;;;;;;;2.25;1.23;;;9.00;93.00;;;;;;5043110;28;20045;-43
2022/04/03 12:01:12;;;;;;;1.63;0.95;;;9.00;93.20;;;;;;5046665;28;20025;-42
2022/04/03 12:03:39;;;;;;;3.00;1.30;;;9.00;92.80;;;;;;5046843;28;20078;-43
2022/04/03 12:06:18;;;;;;;1.65;1.23;;;8.80;92.80;;;;;;5046294;28;20667;-40
2022/04/03 12:08:48;;;;;;;2.25;1.40;;;8.70;92.80;;;;;;5046243;28;20215;-44
2022/04/03 12:11:28;;;;;;;1.73;1.30;;;8.50;92.50;;;;;;5046904;28;20059;-41
2022/04/03 12:13:56;;;;;;;2.35;1.20;;;8.30;92.90;;;;;;5045872;28;20029;-43
2022/04/03 12:16:24;;;;;;;2.60;1.23;;;8.20;93.20;;;;;;5046110;28;20825;-42
2022/04/03 12:19:00;;;;;;;1.83;1.10;;;8.10;93.40;;;;;;5046466;28;20017;-43
2022/04/03 12:21:49;;;;;;;0.77;0.77;;;8.10;93.50;;;;;;5046201;28;20029;-43
2022/04/03 12:24:20;;;;;;;0.60;0.60;;;8.10;93.60;;;;;;5046413;28;20021;-42
2022/04/03 12:27:06;;;;;;;1.30;1.10;;;8.20;93.60;;;;;;5047466;28;20025;-43
2022/04/03 12:29:37;;;;;;;1.15;1.00;;;8.20;93.60;;;;;;5043974;28;20041;-40
2022/04/03 12:32:08;;;;;;;3.17;1.20;;;8.30;93.70;;;;;;5044540;28;20032;-42
2022/04/03 12:34:36;;;;;;;2.05;1.10;;;8.40;93.70;;;;;;5045627;28;20028;-40
2022/04/03 12:37:04;;;;;;;1.00;0.90;;;8.40;93.70;;;;;;5045871;28;20021;-41
2022/04/03 12:39:43;;;;;;;0.90;0.90;;;8.40;93.80;;;;;;5043555;28;20049;-40
2022/04/03 12:42:15;;;;;;;1.92;1.10;;;8.40;93.80;;;;;;5045770;28;20116;-40
2022/04/03 12:44:55;;;;;;;1.70;1.20;;;8.30;93.90;;;;;;5044572;28;20066;-42
2022/04/03 12:47:27;;;;;;;2.08;1.00;;;8.30;94.00;;;;;;5046349;28;20033;-40
2022/04/03 12:50:07;;;;;;;1.05;0.90;;;8.30;94.00;;;;;;5044240;28;20531;-43
2022/04/03 12:52:38;;;;;;;1.25;1.10;;;8.30;94.00;;;;;;5046374;28;20071;-42
2022/04/03 12:55:20;;;;;;;2.50;1.08;;;8.40;93.70;;;;;;5043021;28;20036;-42
2022/04/03 13:00:30;;;;;;;1.55;0.90;;;8.30;93.40;;;;;;5045645;28;20055;-39
2022/04/03 13:02:55;;;;;;;0.98;0.80;;;8.40;93.60;;;;;;5045640;28;20029;-41